Time;durP1;ratioP1;P1;durP2;ratioP2;P2;SDS_P1;SDS_P2;PMS_P1;PMS_P2;Temp;Humidity;BMP_temperature;BMP_pressure;BME280_temperature;BME280_humidity;BME280_pressure;Samples;Min_cycle;Max_cycle;Signal;HPM_P1;HPM_P2
2022/05/23 00:01:58;;;;;;;4.18;1.35;;;18.10;77.80;;;;;;4156675;28;20077;-49
2022/05/23 00:04:00;;;;;;;5.13;1.17;;;18.10;77.80;;;;;;4129177;28;20060;-46
2022/05/23 00:06:03;;;;;;;2.65;0.75;;;18.00;77.80;;;;;;4127113;28;20049;-45
2022/05/23 00:08:05;;;;;;;2.60;0.90;;;18.00;77.70;;;;;;4116340;28;21982;-47
2022/05/23 00:10:09;;;;;;;2.42;1.08;;;18.10;77.70;;;;;;4111090;28;20071;-47
2022/05/23 00:12:11;;;;;;;3.55;1.20;;;18.00;77.60;;;;;;4110989;28;20137;-50
2022/05/23 00:14:15;;;;;;;3.47;0.80;;;18.00;77.70;;;;;;4119865;28;20927;-45
2022/05/23 00:16:20;;;;;;;8.75;1.40;;;18.00;77.70;;;;;;4111871;28;20143;-55
2022/05/23 00:18:22;;;;;;;8.82;1.50;;;18.00;77.70;;;;;;4111202;28;20103;-52
2022/05/23 00:20:26;;;;;;;4.75;1.38;;;18.30;77.20;;;;;;4117475;28;20053;-47
2022/05/23 00:22:28;;;;;;;16.38;2.95;;;18.80;76.50;;;;;;4114234;28;20429;-47
2022/05/23 00:24:31;;;;;;;26.48;4.60;;;19.50;74.70;;;;;;4105704;28;20057;-51
2022/05/23 00:26:33;;;;;;;37.63;4.00;;;20.20;73.10;;;;;;4101740;28;20049;-46
2022/05/23 00:28:35;;;;;;;28.42;4.22;;;20.70;71.90;;;;;;4111137;28;20054;-53
2022/05/23 00:30:37;;;;;;;16.85;3.13;;;21.30;70.20;;;;;;4103285;28;21253;-45
2022/05/23 00:35:18;;;;;;;21.63;2.53;;;22.30;67.40;;;;;;4109022;28;20053;-62
2022/05/23 00:37:21;;;;;;;19.63;2.45;;;22.70;66.60;;;;;;4111816;28;21550;-63
2022/05/23 00:39:23;;;;;;;8.80;1.98;;;22.60;66.50;;;;;;4104958;28;20080;-58
2022/05/23 00:44:03;;;;;;;10.00;1.80;;;22.00;67.50;;;;;;4106287;28;20580;-52
2022/05/23 00:46:05;;;;;;;6.78;1.67;;;21.70;68.30;;;;;;4089389;28;20050;-52
2022/05/23 00:48:08;;;;;;;7.80;1.92;;;21.50;68.80;;;;;;4106912;28;20053;-53
2022/05/23 00:50:19;;;;;;;8.88;1.75;;;21.30;69.30;;;;;;4110018;28;20529;-50
2022/05/23 00:52:37;;;;;;;5.60;1.50;;;21.20;69.70;;;;;;4110267;28;20500;-52
2022/05/23 00:54:46;;;;;;;5.15;1.30;;;21.00;70.10;;;;;;4102572;28;20061;-51
2022/05/23 00:56:50;;;;;;;6.40;1.35;;;20.90;70.40;;;;;;4111571;28;20046;-58
2022/05/23 00:58:57;;;;;;;13.85;1.73;;;20.80;70.70;;;;;;4116439;28;20053;-52
2022/05/23 01:01:05;;;;;;;2.83;1.00;;;20.70;70.80;;;;;;4110848;28;20198;-62
2022/05/23 01:03:13;;;;;;;5.70;1.55;;;20.60;71.10;;;;;;4108284;28;20081;-62
2022/05/23 01:05:15;;;;;;;5.93;1.40;;;20.50;71.60;;;;;;4109046;28;20144;-63
2022/05/23 01:07:18;;;;;;;5.95;1.67;;;20.50;72.00;;;;;;4110745;28;20477;-62
2022/05/23 01:09:25;;;;;;;5.45;1.45;;;20.50;72.30;;;;;;4118782;28;20053;-62
2022/05/23 01:11:28;;;;;;;3.97;1.63;;;20.40;71.90;;;;;;4112796;28;20049;-62
2022/05/23 01:13:31;;;;;;;14.17;1.60;;;20.40;71.90;;;;;;4108782;28;20152;-58
2022/05/23 01:15:34;;;;;;;4.13;1.60;;;20.30;72.30;;;;;;4111512;28;20111;-60
2022/05/23 01:17:36;;;;;;;2.95;1.02;;;20.30;72.70;;;;;;4117067;28;20049;-61
2022/05/23 01:19:38;;;;;;;4.57;1.00;;;20.30;72.70;;;;;;4108157;28;20385;-53
2022/05/23 01:21:55;;;;;;;2.83;1.00;;;20.30;72.70;;;;;;4104973;28;20049;-55
2022/05/23 01:24:37;;;;;;;2.30;0.90;;;20.30;72.60;;;;;;4106671;28;20045;-60
2022/05/23 01:26:39;;;;;;;3.65;0.98;;;20.20;72.60;;;;;;4104646;28;20064;-61
2022/05/23 01:28:43;;;;;;;5.38;1.58;;;20.20;72.90;;;;;;4112869;28;20060;-54
2022/05/23 01:30:46;;;;;;;5.47;1.20;;;20.20;72.80;;;;;;4114448;28;21065;-57
2022/05/23 01:32:49;;;;;;;3.20;1.20;;;20.20;72.60;;;;;;4110235;28;20199;-53
2022/05/23 01:34:51;;;;;;;4.95;1.05;;;20.20;72.60;;;;;;4111436;28;20706;-57
2022/05/23 01:36:53;;;;;;;2.72;0.93;;;20.10;72.60;;;;;;4116080;28;20042;-55
2022/05/23 01:38:56;;;;;;;1.42;0.50;;;20.10;72.50;;;;;;4109686;28;20052;-52
2022/05/23 01:40:59;;;;;;;2.55;0.93;;;20.10;72.60;;;;;;4110469;28;20410;-51
2022/05/23 01:43:01;;;;;;;2.47;0.60;;;20.00;72.60;;;;;;4115994;28;20060;-56
2022/05/23 01:45:04;;;;;;;3.10;0.80;;;20.00;72.50;;;;;;4114515;28;20053;-55
2022/05/23 01:47:11;;;;;;;2.88;0.80;;;20.00;72.60;;;;;;4109219;28;20500;-58
2022/05/23 01:49:13;;;;;;;2.38;0.77;;;20.00;72.50;;;;;;4110392;28;20297;-58
2022/05/23 01:51:15;;;;;;;1.85;0.60;;;20.00;72.60;;;;;;4115675;28;20062;-55
2022/05/23 01:53:18;;;;;;;1.67;0.70;;;20.00;72.50;;;;;;4113357;28;20061;-58
2022/05/23 01:55:21;;;;;;;2.33;0.60;;;19.90;72.60;;;;;;4107796;28;20095;-60
2022/05/23 01:57:23;;;;;;;1.30;0.65;;;19.90;72.70;;;;;;4106753;28;20449;-56
2022/05/23 02:01:46;;;;;;;0.60;0.50;;;20.00;72.60;;;;;;4112793;28;20049;-57
2022/05/23 02:03:49;;;;;;;1.08;0.40;;;20.00;72.60;;;;;;4116662;28;20060;-56
2022/05/23 02:05:51;;;;;;;3.35;0.85;;;20.00;72.60;;;;;;4108750;28;20513;-59
2022/05/23 02:07:54;;;;;;;2.47;0.60;;;20.00;72.60;;;;;;4108140;28;20228;-55
2022/05/23 02:09:56;;;;;;;4.32;1.08;;;20.10;72.50;;;;;;4117853;28;20593;-56
2022/05/23 02:11:58;;;;;;;3.50;1.10;;;20.60;71.40;;;;;;4109625;28;20223;-58
2022/05/23 02:14:01;;;;;;;2.28;0.90;;;21.40;69.40;;;;;;4109723;28;20118;-61
2022/05/23 02:16:04;;;;;;;2.05;0.80;;;22.10;67.00;;;;;;4116410;28;20049;-58
2022/05/23 02:18:06;;;;;;;7.50;0.77;;;22.80;65.00;;;;;;4115090;28;20191;-62
2022/05/23 02:20:10;;;;;;;3.77;0.90;;;23.40;63.30;;;;;;4109566;28;20038;-60
2022/05/23 02:22:12;;;;;;;1.33;0.65;;;24.00;62.00;;;;;;4108128;28;20140;-57
2022/05/23 02:24:14;;;;;;;1.90;0.73;;;24.40;60.80;;;;;;4115061;28;20053;-61
2022/05/23 02:26:16;;;;;;;1.80;0.80;;;24.60;60.30;;;;;;4103008;28;21642;-60
2022/05/23 02:28:19;;;;;;;1.75;0.85;;;24.40;60.40;;;;;;4098375;28;20406;-62
2022/05/23 02:30:21;;;;;;;1.27;0.68;;;24.20;61.10;;;;;;4115343;28;20054;-59
2022/05/23 02:32:24;;;;;;;3.00;0.68;;;23.80;62.50;;;;;;4112159;28;20045;-60
2022/05/23 02:34:26;;;;;;;2.05;0.70;;;23.40;62.60;;;;;;4110416;28;20667;-60
2022/05/23 02:36:28;;;;;;;1.90;0.60;;;23.20;63.20;;;;;;4110337;28;20443;-60
2022/05/23 02:38:30;;;;;;;2.50;0.82;;;23.00;63.70;;;;;;4113084;28;20038;-59
2022/05/23 02:40:32;;;;;;;2.35;0.70;;;22.80;64.10;;;;;;4105556;28;20049;-59
2022/05/23 02:42:34;;;;;;;3.08;0.55;;;22.70;64.50;;;;;;4120285;28;20243;-59
2022/05/23 02:44:37;;;;;;;1.88;0.70;;;22.50;65.00;;;;;;4116191;28;20552;-59
2022/05/23 02:46:48;;;;;;;2.90;0.77;;;22.40;65.40;;;;;;4107519;28;20060;-64
2022/05/23 02:48:50;;;;;;;3.03;0.90;;;22.30;66.20;;;;;;4099276;28;20045;-59
2022/05/23 02:50:52;;;;;;;1.67;0.85;;;22.20;65.70;;;;;;4101388;28;20446;-59
2022/05/23 02:52:55;;;;;;;2.45;0.80;;;22.20;66.50;;;;;;4106604;28;20521;-62
2022/05/23 02:54:57;;;;;;;2.97;0.90;;;22.10;66.70;;;;;;4108112;28;20458;-59
2022/05/23 02:56:59;;;;;;;2.15;0.88;;;22.10;66.80;;;;;;4103855;28;20456;-61
2022/05/23 02:59:02;;;;;;;2.70;1.35;;;22.10;67.20;;;;;;4107998;28;20072;-62
2022/05/23 03:01:04;;;;;;;5.35;1.40;;;22.00;67.20;;;;;;4108732;28;20049;-61
2022/05/23 03:03:09;;;;;;;4.80;2.05;;;22.00;67.40;;;;;;4099731;28;20168;-60
2022/05/23 03:05:11;;;;;;;7.30;2.30;;;21.90;67.50;;;;;;4105703;28;20136;-60
2022/05/23 03:07:14;;;;;;;3.83;2.33;;;21.90;67.80;;;;;;4113030;28;20100;-63
2022/05/23 03:09:16;;;;;;;5.80;2.63;;;21.90;67.90;;;;;;4108631;28;20632;-61
2022/05/23 03:11:22;;;;;;;7.57;3.05;;;21.80;68.00;;;;;;4105291;28;20120;-60
2022/05/23 03:13:25;;;;;;;4.28;3.20;;;21.80;68.10;;;;;;4088219;28;20131;-62
2022/05/23 03:15:28;;;;;;;5.33;2.90;;;21.70;68.10;;;;;;4113812;28;20145;-62
2022/05/23 03:17:31;;;;;;;5.22;2.95;;;21.70;68.30;;;;;;4108944;28;20171;-61
2022/05/23 03:19:37;;;;;;;5.30;3.15;;;21.70;68.50;;;;;;4108164;28;20053;-60
2022/05/23 03:29:00;;;;;;;5.28;3.10;;;21.60;68.70;;;;;;4123037;28;20152;-58
2022/05/23 03:31:03;;;;;;;7.05;3.33;;;21.60;68.90;;;;;;4112496;28;20714;-60
2022/05/23 03:33:07;;;;;;;;;;;21.60;68.80;;;;;;4136104;28;20095;-59
2022/05/23 03:35:09;;;;;;;4.00;3.00;;;21.60;69.00;;;;;;4113653;28;20074;-56
2022/05/23 03:37:11;;;;;;;5.03;2.67;;;21.50;69.10;;;;;;4111172;28;20437;-64
2022/05/23 03:39:13;;;;;;;6.00;2.85;;;21.50;69.10;;;;;;4114676;28;20101;-62
2022/05/23 03:41:16;;;;;;;6.30;2.90;;;21.50;69.30;;;;;;4134885;28;20103;-64
2022/05/23 03:43:18;;;;;;;4.88;2.70;;;21.50;69.40;;;;;;4112051;28;20077;-62
2022/05/23 03:45:20;;;;;;;3.08;2.55;;;21.50;69.40;;;;;;4112188;28;20373;-63
2022/05/23 03:47:22;;;;;;;4.07;2.97;;;21.50;69.40;;;;;;4119471;28;20378;-59
2022/05/23 03:49:24;;;;;;;4.95;2.55;;;21.40;69.50;;;;;;4112989;28;20049;-62
2022/05/23 03:51:27;;;;;;;5.87;2.60;;;21.40;69.50;;;;;;4111398;28;20064;-60
2022/05/23 03:53:30;;;;;;;5.50;2.63;;;21.40;69.60;;;;;;4120197;28;20337;-61
2022/05/23 03:55:32;;;;;;;5.88;2.90;;;21.40;69.80;;;;;;4115789;28;20516;-61
2022/05/23 03:57:35;;;;;;;5.10;2.70;;;21.40;69.80;;;;;;4111722;28;20053;-61
2022/05/23 03:59:37;;;;;;;6.07;2.78;;;21.40;69.80;;;;;;4113345;28;20448;-60
2022/05/23 04:01:39;;;;;;;2.97;2.22;;;21.30;69.90;;;;;;4120335;28;20046;-61
2022/05/23 04:03:42;;;;;;;5.75;2.33;;;21.30;70.10;;;;;;4111259;28;20054;-62
2022/05/23 04:05:44;;;;;;;4.32;2.30;;;21.30;70.10;;;;;;4111827;28;20116;-63
2022/05/23 04:07:47;;;;;;;3.00;2.30;;;21.30;70.10;;;;;;4120365;28;20061;-54
2022/05/23 04:09:49;;;;;;;3.67;2.28;;;21.30;70.20;;;;;;4112295;28;21134;-61
2022/05/23 04:11:51;;;;;;;4.03;2.22;;;21.30;70.40;;;;;;4112031;28;20275;-59
2022/05/23 04:13:53;;;;;;;3.38;2.10;;;21.30;70.40;;;;;;4118031;28;20597;-62
2022/05/23 04:15:56;;;;;;;4.38;2.10;;;21.30;70.50;;;;;;4115102;28;20049;-60
2022/05/23 04:17:58;;;;;;;5.47;1.85;;;21.40;71.10;;;;;;4111564;28;20142;-60
2022/05/23 04:20:00;;;;;;;2.72;1.95;;;21.40;70.50;;;;;;4113291;28;20049;-60
2022/05/23 04:22:03;;;;;;;3.28;1.85;;;21.40;70.30;;;;;;4121229;28;20062;-63
2022/05/23 04:24:05;;;;;;;3.35;1.80;;;21.50;70.20;;;;;;4123281;28;20049;-60
2022/05/23 04:26:08;;;;;;;2.77;1.70;;;21.50;70.20;;;;;;4119910;28;20057;-62
2022/05/23 04:28:10;;;;;;;;;;;21.60;70.20;;;;;;4125278;28;20986;-61
2022/05/23 04:30:12;;;;;;;2.15;1.50;;;21.60;70.00;;;;;;4118089;28;19929;-59
2022/05/23 04:37:12;;;;;;;2.55;1.52;;;21.70;70.20;;;;;;4108197;28;20049;-65
2022/05/23 04:39:15;;;;;;;2.17;0.93;;;21.70;70.50;;;;;;4115742;28;20115;-64
2022/05/23 04:41:17;;;;;;;3.90;1.50;;;21.60;70.60;;;;;;4118457;28;20688;-63
2022/05/23 04:43:19;;;;;;;1.83;1.23;;;21.60;70.70;;;;;;4111250;28;20072;-62
2022/05/23 04:45:22;;;;;;;1.50;1.00;;;21.60;70.80;;;;;;4110831;28;20237;-61
2022/05/23 04:49:50;;;;;;;3.65;1.40;;;21.60;70.90;;;;;;4113679;28;20081;-63
2022/05/23 04:51:52;;;;;;;3.45;1.10;;;21.60;71.00;;;;;;4117377;28;20527;-61
2022/05/23 04:53:55;;;;;;;3.53;0.95;;;21.50;71.00;;;;;;4105977;28;20453;-61
2022/05/23 04:56:00;;;;;;;4.22;1.05;;;21.50;71.10;;;;;;4105727;28;20880;-60
2022/05/23 04:58:02;;;;;;;3.40;1.23;;;21.50;71.70;;;;;;4109551;28;20068;-62
2022/05/23 05:00:08;;;;;;;6.35;1.35;;;21.50;70.90;;;;;;4117243;28;20199;-62
2022/05/23 05:02:10;;;;;;;2.35;1.08;;;21.50;70.90;;;;;;4111938;28;20323;-61
2022/05/23 05:04:12;;;;;;;1.65;0.90;;;21.50;70.90;;;;;;4109485;28;20140;-62
2022/05/23 05:06:14;;;;;;;1.77;1.20;;;21.50;71.00;;;;;;4108645;28;20369;-67
2022/05/23 05:08:16;;;;;;;2.65;1.40;;;21.50;71.40;;;;;;4117149;28;20112;-61
2022/05/23 05:10:21;;;;;;;1.27;0.80;;;21.40;71.00;;;;;;4107689;28;20523;-59
2022/05/23 05:12:24;;;;;;;2.88;1.30;;;21.40;70.90;;;;;;4109023;28;20062;-59
2022/05/23 05:14:27;;;;;;;3.97;1.00;;;21.40;71.00;;;;;;4115035;28;20053;-60
2022/05/23 05:16:29;;;;;;;2.55;0.93;;;21.40;71.10;;;;;;4112690;28;21178;-60
2022/05/23 05:18:32;;;;;;;2.83;1.02;;;21.40;71.10;;;;;;4109509;28;20061;-60
2022/05/23 05:20:34;;;;;;;0.98;0.73;;;21.40;71.10;;;;;;4108631;28;20188;-59
2022/05/23 05:22:37;;;;;;;1.33;0.80;;;21.40;71.20;;;;;;4115063;28;20443;-60
2022/05/23 05:24:39;;;;;;;4.05;1.05;;;21.30;71.20;;;;;;4109000;28;20149;-64
2022/05/23 05:26:41;;;;;;;1.98;1.05;;;21.30;71.20;;;;;;4108219;28;20425;-62
2022/05/23 05:28:43;;;;;;;3.22;0.75;;;21.30;71.20;;;;;;4117454;28;20049;-62
2022/05/23 05:31:02;;;;;;;2.13;0.75;;;21.30;71.20;;;;;;4110691;28;20662;-60
2022/05/23 05:33:10;;;;;;;1.92;0.93;;;21.30;71.20;;;;;;4115716;28;20105;-63
2022/05/23 05:35:43;;;;;;;3.17;0.77;;;21.30;71.30;;;;;;4112014;28;20042;-61
2022/05/23 05:38:13;;;;;;;1.98;0.77;;;21.30;71.40;;;;;;4103867;28;20579;-60
2022/05/23 05:40:20;;;;;;;2.95;0.77;;;21.30;71.40;;;;;;4115845;28;20688;-58
2022/05/23 05:42:33;;;;;;;2.17;1.00;;;21.20;71.40;;;;;;4112575;28;20159;-61
2022/05/23 05:44:38;;;;;;;1.25;0.70;;;21.20;71.50;;;;;;4109675;28;21613;-62
2022/05/23 05:46:50;;;;;;;1.58;0.88;;;21.20;72.00;;;;;;4107504;28;20493;-63
2022/05/23 05:48:55;;;;;;;1.27;0.60;;;21.20;71.60;;;;;;4106918;28;20045;-62
2022/05/23 05:50:57;;;;;;;2.28;0.60;;;21.20;71.70;;;;;;4108630;28;20421;-63
2022/05/23 05:53:03;;;;;;;0.90;0.50;;;21.20;71.80;;;;;;4113696;28;20060;-61
2022/05/23 05:55:07;;;;;;;1.02;0.75;;;21.20;71.80;;;;;;4111600;28;20361;-60
2022/05/23 05:57:11;;;;;;;1.67;0.60;;;21.20;71.80;;;;;;4100637;28;20057;-60
2022/05/23 05:59:14;;;;;;;1.90;0.70;;;21.20;71.90;;;;;;4101552;28;20914;-59
2022/05/23 06:01:17;;;;;;;1.95;0.60;;;21.20;71.80;;;;;;4107126;28;20528;-61
2022/05/23 06:03:19;;;;;;;3.05;1.20;;;21.20;71.90;;;;;;4107720;28;20096;-59
2022/05/23 06:05:21;;;;;;;4.35;0.70;;;21.10;72.50;;;;;;4100866;28;20632;-57
2022/05/23 06:12:09;;;;;;;1.23;0.52;;;21.10;72.10;;;;;;4108571;28;20388;-68
2022/05/23 06:14:11;;;;;;;0.40;0.40;;;21.10;72.40;;;;;;4099181;28;20045;-62
2022/05/23 06:16:13;;;;;;;2.40;0.50;;;21.10;72.40;;;;;;4100358;28;20655;-59
2022/05/23 06:18:15;;;;;;;2.30;0.98;;;21.10;72.40;;;;;;4107283;28;20115;-60
2022/05/23 06:20:18;;;;;;;2.50;0.75;;;21.10;72.50;;;;;;4100842;28;20819;-61
2022/05/23 06:22:21;;;;;;;3.67;0.70;;;21.10;72.50;;;;;;4101344;28;20104;-61
2022/05/23 06:24:23;;;;;;;2.20;0.40;;;21.10;72.70;;;;;;4105842;28;21198;-60
2022/05/23 06:26:27;;;;;;;0.95;0.47;;;21.10;72.60;;;;;;4106399;28;20053;-60
2022/05/23 06:28:30;;;;;;;1.67;0.55;;;21.00;72.50;;;;;;4100555;28;20084;-62
2022/05/23 06:30:32;;;;;;;1.40;0.63;;;21.10;72.60;;;;;;4101784;28;20618;-61
2022/05/23 06:32:34;;;;;;;2.28;0.40;;;21.00;72.50;;;;;;4108618;28;20417;-60
2022/05/23 06:34:36;;;;;;;0.95;0.45;;;21.00;72.70;;;;;;4099388;28;21059;-61
2022/05/23 06:36:38;;;;;;;1.58;0.50;;;21.00;72.70;;;;;;4098015;28;20501;-59
2022/05/23 06:38:41;;;;;;;3.88;0.60;;;21.00;72.70;;;;;;4106354;28;20190;-58
2022/05/23 06:40:44;;;;;;;1.45;0.60;;;21.00;72.70;;;;;;4103539;28;20610;-57
2022/05/23 06:42:47;;;;;;;0.70;0.53;;;21.00;72.70;;;;;;4100538;28;20348;-59
2022/05/23 06:44:49;;;;;;;0.88;0.60;;;21.00;72.70;;;;;;4099746;28;20111;-58
2022/05/23 06:46:51;;;;;;;2.63;0.50;;;21.00;72.70;;;;;;4109612;28;20084;-61
2022/05/23 06:48:53;;;;;;;0.40;0.40;;;21.00;72.70;;;;;;4101456;28;20489;-60
2022/05/23 06:50:56;;;;;;;0.40;0.40;;;20.90;72.60;;;;;;4101081;28;20128;-58
2022/05/23 06:52:58;;;;;;;0.60;0.40;;;21.00;72.80;;;;;;4106765;28;21178;-59
2022/05/23 06:55:00;;;;;;;1.35;0.60;;;20.90;72.70;;;;;;4101657;28;21686;-59
2022/05/23 06:57:02;;;;;;;1.95;0.50;;;20.90;72.80;;;;;;4102257;28;20554;-61
2022/05/23 06:59:05;;;;;;;1.58;0.75;;;20.90;72.70;;;;;;4105067;28;20580;-61
2022/05/23 07:01:07;;;;;;;0.90;0.50;;;20.90;72.80;;;;;;4108133;28;21161;-58
2022/05/23 07:03:10;;;;;;;1.35;0.63;;;20.90;72.80;;;;;;4106462;28;20057;-59
2022/05/23 07:12:26;;;;;;;2.33;1.10;;;20.90;72.80;;;;;;4109482;28;20049;-58
2022/05/23 07:14:28;;;;;;;3.30;1.75;;;20.90;72.80;;;;;;4107261;28;20159;-59
2022/05/23 07:16:32;;;;;;;3.17;1.67;;;20.90;72.90;;;;;;4104429;28;20942;-55
2022/05/23 07:18:34;;;;;;;4.75;2.20;;;20.80;72.80;;;;;;4101938;28;20491;-52
2022/05/23 07:20:36;;;;;;;2.78;1.70;;;20.90;72.90;;;;;;4104233;28;20075;-58
2022/05/23 07:22:38;;;;;;;2.97;1.58;;;20.80;72.80;;;;;;4111604;28;20053;-61
2022/05/23 07:24:41;;;;;;;4.13;1.92;;;20.80;72.80;;;;;;4103957;28;20052;-60
2022/05/23 07:26:43;;;;;;;4.00;1.80;;;20.80;72.80;;;;;;4104064;28;20049;-63
2022/05/23 07:28:46;;;;;;;5.07;1.92;;;20.80;72.90;;;;;;4111945;28;20434;-60
2022/05/23 07:30:48;;;;;;;4.50;1.75;;;20.80;72.90;;;;;;4102750;28;20538;-61
2022/05/23 07:32:50;;;;;;;5.15;2.05;;;20.80;72.90;;;;;;4103383;28;20051;-63
2022/05/23 07:34:52;;;;;;;3.85;1.73;;;20.80;73.00;;;;;;4109075;28;20056;-62
2022/05/23 07:36:55;;;;;;;4.68;2.00;;;20.80;73.00;;;;;;4108140;28;21002;-64
2022/05/23 07:38:57;;;;;;;4.15;1.92;;;20.80;73.10;;;;;;4105198;28;20058;-67
2022/05/23 07:41:00;;;;;;;4.25;1.83;;;20.80;72.80;;;;;;4102178;28;21295;-62
2022/05/23 07:43:02;;;;;;;4.18;1.65;;;20.80;73.50;;;;;;4108286;28;20061;-60
2022/05/23 07:45:05;;;;;;;3.80;2.00;;;20.80;72.80;;;;;;4102022;28;21165;-61
2022/05/23 07:47:08;;;;;;;2.60;1.48;;;20.80;72.90;;;;;;4102686;28;20080;-62
2022/05/23 07:49:10;;;;;;;7.10;1.80;;;20.80;72.90;;;;;;4110929;28;20053;-62
2022/05/23 07:51:14;;;;;;;3.30;1.20;;;20.80;72.90;;;;;;4112674;28;20785;-61
2022/05/23 08:00:33;;;;;;;1.98;1.15;;;20.70;72.80;;;;;;4110059;28;20533;-59
2022/05/23 08:02:35;;;;;;;1.27;0.98;;;20.70;72.70;;;;;;4108157;28;20053;-59
2022/05/23 08:04:38;;;;;;;2.17;1.42;;;20.70;72.60;;;;;;4112064;28;20056;-59
2022/05/23 08:06:40;;;;;;;1.63;1.00;;;20.70;72.50;;;;;;4117973;28;20103;-59
2022/05/23 08:08:42;;;;;;;2.40;1.30;;;20.70;72.50;;;;;;4109468;28;20544;-59
2022/05/23 08:10:44;;;;;;;2.70;1.25;;;20.60;72.50;;;;;;4106538;28;20080;-59
2022/05/23 08:12:50;;;;;;;3.22;1.30;;;20.60;72.40;;;;;;4114708;28;20049;-58
2022/05/23 08:14:52;;;;;;;3.47;1.88;;;20.60;72.40;;;;;;4111506;28;20719;-56
2022/05/23 08:16:54;;;;;;;2.50;1.55;;;20.60;72.30;;;;;;4107852;28;20065;-59
2022/05/23 08:18:58;;;;;;;2.72;1.67;;;20.60;72.30;;;;;;4112773;28;20057;-61
2022/05/23 08:21:01;;;;;;;5.10;2.22;;;20.50;72.60;;;;;;4114005;28;20112;-61
2022/05/23 08:23:04;;;;;;;2.00;1.20;;;20.50;72.60;;;;;;4107801;28;21611;-62
2022/05/23 08:25:06;;;;;;;2.92;1.33;;;20.50;72.50;;;;;;4107464;28;20384;-62
2022/05/23 08:27:08;;;;;;;2.60;1.30;;;20.50;72.50;;;;;;4108748;28;20456;-62
2022/05/23 08:29:11;;;;;;;3.60;1.37;;;20.50;72.50;;;;;;4107947;28;20124;-62
2022/05/23 08:31:14;;;;;;;2.75;1.27;;;20.40;71.90;;;;;;4102465;28;20100;-62
2022/05/23 08:33:16;;;;;;;4.10;1.48;;;20.40;72.40;;;;;;4105111;28;20057;-62
2022/05/23 08:35:18;;;;;;;4.03;1.33;;;20.40;72.30;;;;;;4114054;28;20041;-62
2022/05/23 08:37:20;;;;;;;4.20;1.40;;;20.40;72.40;;;;;;4104947;28;20508;-62
2022/05/23 08:39:22;;;;;;;2.40;1.20;;;20.40;72.40;;;;;;4104584;28;20042;-62
2022/05/23 08:41:49;;;;;;;3.70;1.20;;;20.30;72.40;;;;;;4111979;28;20093;-61
2022/05/23 08:44:22;;;;;;;3.83;1.20;;;20.30;72.40;;;;;;4104330;28;20049;-62
2022/05/23 08:46:50;;;;;;;3.22;1.40;;;20.30;72.40;;;;;;4108765;28;20590;-63
2022/05/23 08:49:19;;;;;;;1.85;1.17;;;20.20;72.40;;;;;;4106035;28;20158;-62
2022/05/23 08:51:36;;;;;;;2.15;1.30;;;20.30;72.50;;;;;;4112516;28;20399;-62
2022/05/23 08:54:05;;;;;;;2.55;1.40;;;20.20;72.40;;;;;;4110921;28;20071;-62
2022/05/23 08:56:32;;;;;;;2.15;1.30;;;20.20;72.50;;;;;;4112208;28;21092;-62
2022/05/23 08:58:52;;;;;;;2.25;1.35;;;20.20;72.50;;;;;;4112289;28;20297;-62
2022/05/23 09:01:07;;;;;;;3.55;1.20;;;20.20;72.50;;;;;;4114999;28;20305;-60
2022/05/23 09:03:12;;;;;;;2.40;1.45;;;20.10;72.40;;;;;;4143290;28;20037;-62
2022/05/23 09:06:01;;;;;;;2.03;1.30;;;20.10;72.50;;;;;;4159984;28;20412;-62
2022/05/23 09:08:10;;;;;;;2.35;1.42;;;20.10;72.50;;;;;;4110044;28;20069;-62
2022/05/23 09:10:28;;;;;;;2.00;1.15;;;20.10;72.50;;;;;;4152860;28;20128;-61
2022/05/23 09:13:14;;;;;;;1.80;1.20;;;20.00;72.50;;;;;;4157164;28;20109;-62
2022/05/23 09:15:16;;;;;;;2.17;1.30;;;20.00;72.50;;;;;;4108086;28;20049;-62
2022/05/23 09:17:27;;;;;;;3.15;1.27;;;20.00;72.50;;;;;;4110778;28;20513;-63
2022/05/23 09:19:42;;;;;;;1.85;1.10;;;20.00;72.50;;;;;;4109602;28;20084;-62
2022/05/23 09:22:26;;;;;;;2.50;1.30;;;19.90;72.50;;;;;;4106492;28;20053;-62
2022/05/23 09:24:11;;;;;;;3.00;1.63;;;19.90;72.50;;;;;;4105783;28;20072;-62
2022/05/23 09:26:28;;;;;;;2.20;1.40;;;19.90;72.50;;;;;;4106741;28;20048;-62
2022/05/23 09:28:30;;;;;;;2.50;1.50;;;19.90;72.50;;;;;;4104690;28;20060;-62
2022/05/23 09:30:34;;;;;;;2.10;1.20;;;19.90;72.60;;;;;;4108093;28;20041;-62
2022/05/23 09:32:50;;;;;;;6.15;1.50;;;19.90;72.60;;;;;;4113809;28;20501;-62
2022/05/23 09:35:00;;;;;;;2.95;1.45;;;19.80;72.50;;;;;;4112219;28;20259;-62
2022/05/23 09:37:04;;;;;;;3.13;1.67;;;19.80;72.60;;;;;;4112743;28;20440;-62
2022/05/23 09:39:11;;;;;;;1.63;1.05;;;19.80;72.60;;;;;;4109818;28;20057;-62
2022/05/23 09:47:44;;;;;;;2.75;1.33;;;19.80;72.60;;;;;;4111728;28;21750;-61
2022/05/23 09:49:11;;;;;;;2.53;1.30;;;19.70;72.60;;;;;;4107403;28;20176;-62
2022/05/23 09:51:13;;;;;;;2.22;1.38;;;19.80;72.70;;;;;;4112717;28;20192;-62
2022/05/23 09:53:32;;;;;;;2.28;1.38;;;19.70;72.80;;;;;;4106978;28;20087;-62
2022/05/23 09:55:37;;;;;;;1.73;1.20;;;19.70;72.70;;;;;;4123351;28;20080;-62
2022/05/23 09:57:57;;;;;;;3.03;1.67;;;19.70;72.20;;;;;;4108046;28;20049;-62
2022/05/23 10:00:07;;;;;;;2.72;1.40;;;19.70;72.70;;;;;;4108693;28;21609;-63
2022/05/23 10:03:03;;;;;;;2.97;1.40;;;19.70;72.80;;;;;;4106894;28;20651;-62
2022/05/23 10:05:21;;;;;;;3.35;1.50;;;19.60;72.80;;;;;;4103045;28;20049;-62
2022/05/23 10:07:31;;;;;;;2.63;1.33;;;19.60;72.80;;;;;;4107527;28;20517;-62
2022/05/23 10:09:37;;;;;;;2.58;1.30;;;19.60;72.90;;;;;;4113910;28;20174;-62
2022/05/23 10:11:39;;;;;;;2.42;1.50;;;19.60;73.00;;;;;;4115364;28;20057;-62
2022/05/23 10:13:44;;;;;;;2.20;1.27;;;19.50;72.90;;;;;;4107847;28;20140;-62
2022/05/23 10:15:55;;;;;;;1.55;1.10;;;19.50;72.90;;;;;;4108654;28;20037;-61
2022/05/23 10:18:08;;;;;;;3.28;1.58;;;19.50;73.00;;;;;;4107236;28;20056;-61
2022/05/23 10:20:41;;;;;;;1.58;1.23;;;19.50;73.10;;;;;;4107688;28;20546;-61
2022/05/23 10:23:05;;;;;;;2.63;1.15;;;19.50;73.00;;;;;;4115777;28;20049;-62
2022/05/23 10:25:10;;;;;;;2.90;1.20;;;19.50;73.10;;;;;;4107735;28;20486;-62
2022/05/23 10:27:32;;;;;;;2.20;1.20;;;19.50;73.20;;;;;;4110510;28;20451;-62
2022/05/23 10:29:58;;;;;;;2.47;1.40;;;19.50;73.10;;;;;;4107095;28;20540;-63
2022/05/23 10:32:07;;;;;;;3.28;1.23;;;19.50;73.10;;;;;;4113415;28;20056;-62
2022/05/23 10:34:34;;;;;;;2.78;1.10;;;19.50;73.20;;;;;;4111321;28;20057;-62
2022/05/23 10:36:38;;;;;;;2.88;1.20;;;19.50;72.80;;;;;;4108077;28;20052;-62
2022/05/23 10:44:02;;;;;;;2.13;1.15;;;19.40;73.20;;;;;;4114139;28;20139;-62
2022/05/23 10:46:04;;;;;;;1.25;0.88;;;19.40;73.20;;;;;;4107364;28;20127;-62
2022/05/23 10:48:12;;;;;;;1.67;1.17;;;19.40;73.20;;;;;;4113512;28;20434;-62
2022/05/23 10:50:32;;;;;;;1.40;1.05;;;19.40;73.20;;;;;;4114964;28;20148;-62
2022/05/23 10:53:08;;;;;;;2.53;1.10;;;19.40;73.20;;;;;;4109780;28;20414;-62
2022/05/23 10:55:18;;;;;;;0.98;0.80;;;19.40;73.30;;;;;;4118024;28;20046;-62
2022/05/23 10:57:49;;;;;;;1.73;1.00;;;19.40;73.30;;;;;;4118199;28;20708;-62
2022/05/23 10:59:57;;;;;;;2.28;1.17;;;19.30;73.30;;;;;;4110212;28;20045;-62
2022/05/23 11:02:08;;;;;;;1.13;0.90;;;19.30;73.30;;;;;;4110127;28;20056;-62
2022/05/23 11:04:25;;;;;;;2.20;1.20;;;19.30;73.30;;;;;;4109735;28;20059;-62
2022/05/23 11:06:33;;;;;;;2.28;0.82;;;19.30;73.30;;;;;;4109565;28;20188;-62
2022/05/23 11:09:00;;;;;;;1.63;1.15;;;19.30;73.40;;;;;;4109864;28;20068;-62
2022/05/23 11:11:25;;;;;;;2.28;1.10;;;19.30;73.30;;;;;;4111730;28;20180;-62
2022/05/23 11:13:49;;;;;;;2.08;1.40;;;19.30;73.40;;;;;;4114731;28;20080;-62
2022/05/23 11:16:06;;;;;;;2.00;0.90;;;19.30;73.40;;;;;;4106114;28;20551;-62
2022/05/23 11:18:33;;;;;;;1.55;1.00;;;19.20;73.30;;;;;;4109852;28;20442;-60
2022/05/23 11:20:38;;;;;;;1.83;1.05;;;19.30;73.40;;;;;;4115389;28;20045;-61
2022/05/23 11:22:55;;;;;;;0.95;0.85;;;19.20;73.30;;;;;;4117563;28;20144;-61
2022/05/23 11:25:12;;;;;;;1.27;0.98;;;19.20;73.50;;;;;;4117221;28;20148;-61
2022/05/23 11:34:46;;;;;;;1.65;0.90;;;19.20;73.50;;;;;;4110207;28;20061;-61
2022/05/23 11:37:53;;;;;;;1.70;0.70;;;19.20;73.50;;;;;;4111528;28;20652;-61
2022/05/23 11:39:56;;;;;;;1.75;0.95;;;19.20;74.20;;;;;;4109260;28;20141;-61
2022/05/23 11:42:09;;;;;;;;;;;19.20;73.50;;;;;;4119661;28;20084;-61
2022/05/23 11:44:44;;;;;;;1.52;1.08;;;19.20;73.50;;;;;;4118361;28;19936;-61
2022/05/23 11:47:21;;;;;;;2.25;1.00;;;19.20;73.60;;;;;;4106561;28;20192;-62
2022/05/23 11:50:01;;;;;;;1.40;1.10;;;19.10;73.50;;;;;;4111423;28;20045;-61
2022/05/23 11:52:15;;;;;;;2.47;0.85;;;19.20;74.20;;;;;;4103297;28;20057;-61
2022/05/23 11:54:34;;;;;;;2.50;1.05;;;19.10;73.60;;;;;;4112036;28;20423;-60
2022/05/23 11:56:45;;;;;;;2.60;1.23;;;19.10;73.60;;;;;;4112736;28;20155;-62
2022/05/23 11:58:49;;;;;;;1.15;0.88;;;19.10;73.60;;;;;;4111913;28;20049;-61
2022/05/23 12:01:19;;;;;;;1.85;0.75;;;19.10;73.70;;;;;;4112505;28;20697;-60
2022/05/23 12:03:21;;;;;;;1.90;0.82;;;19.10;73.60;;;;;;4113479;28;20924;-61